createdAt,value
2023-01-28T00:00:50.227Z,3.67
2023-01-28T00:04:53.543Z,3.68
2023-01-28T00:08:57.723Z,3.67
2023-01-28T00:13:00.495Z,3.64
2023-01-28T00:17:05.849Z,3.64
2023-01-28T00:21:12.306Z,3.61
2023-01-28T00:25:16.837Z,3.56
2023-01-28T00:29:19.913Z,3.48
2023-01-28T00:33:22.737Z,3.42
2023-01-28T00:37:25.503Z,3.37
2023-01-28T00:41:30.803Z,3.22
2023-01-28T00:45:34.310Z,3.16
2023-01-28T00:49:37.071Z,3.15
2023-01-28T00:53:39.818Z,3.03
2023-01-28T00:57:44.972Z,3.08
2023-01-28T01:01:50.626Z,3.04
2023-01-28T01:05:53.365Z,3.03
2023-01-28T01:09:56.136Z,2.94
2023-01-28T01:14:05.327Z,2.97
2023-01-28T01:18:08.244Z,2.97
2023-01-28T01:22:11.077Z,2.91
2023-01-28T01:26:14.406Z,2.86
2023-01-28T01:30:18.818Z,2.87
2023-01-28T01:34:21.613Z,2.93
2023-01-28T01:38:25.229Z,2.81
2023-01-28T01:42:28.187Z,2.76
2023-01-28T01:46:37.252Z,2.70
2023-01-28T01:50:44.374Z,2.66
2023-01-28T01:54:49.976Z,2.63
2023-01-28T01:58:56.507Z,2.71
2023-01-28T02:03:01.123Z,2.76
2023-01-28T02:07:04.516Z,2.73
2023-01-28T02:11:09.225Z,2.66
2023-01-28T02:15:15.343Z,2.62
2023-01-28T02:19:23.352Z,2.67
2023-01-28T02:23:42.922Z,2.71
2023-01-28T02:28:10.576Z,2.73
2023-01-28T02:32:18.941Z,2.71
2023-01-28T02:36:28.942Z,2.72
2023-01-28T02:40:55.315Z,2.66
2023-01-28T02:44:59.729Z,2.55
2023-01-28T02:49:04.514Z,2.54
2023-01-28T02:53:39.139Z,2.55
2023-01-28T02:57:53.061Z,2.59
2023-01-28T03:02:05.031Z,2.59
2023-01-28T03:06:11.009Z,2.54
2023-01-28T03:10:17.343Z,2.50
2023-01-28T03:14:39.013Z,2.50
2023-01-28T03:19:05.735Z,2.50
2023-01-28T03:23:30.150Z,2.37
2023-01-28T03:27:58.005Z,2.41
2023-01-28T03:32:20.459Z,2.38
2023-01-28T03:36:42.743Z,2.42
2023-01-28T03:40:57.993Z,2.36
2023-01-28T03:45:04.113Z,2.32
2023-01-28T03:49:07.143Z,2.25
2023-01-28T03:53:16.916Z,2.23
2023-01-28T03:57:26.192Z,2.18
2023-01-28T04:01:29.220Z,2.10
2023-01-28T04:05:32.948Z,2.07
2023-01-28T04:09:38.391Z,2.02
2023-01-28T04:14:01.670Z,2.00
2023-01-28T04:18:14.933Z,1.96
2023-01-28T04:22:18.240Z,1.92
2023-01-28T04:26:22.503Z,1.97
2023-01-28T04:30:25.751Z,2.00
2023-01-28T04:34:57.693Z,1.99
2023-01-28T04:39:15.249Z,1.86
2023-01-28T04:43:30.459Z,1.84
2023-01-28T04:47:53.398Z,1.92
2023-01-28T04:52:14.440Z,1.95
2023-01-28T04:56:35.872Z,1.95
2023-01-28T05:00:42.345Z,1.88
2023-01-28T05:04:45.480Z,1.79
2023-01-28T05:09:01.331Z,1.74
2023-01-28T05:13:05.971Z,1.77
2023-01-28T05:17:10.569Z,1.78
2023-01-28T05:21:15.088Z,1.81
2023-01-28T05:25:19.256Z,1.88
2023-01-28T05:29:22.584Z,1.92
2023-01-28T05:33:26.834Z,1.83
2023-01-28T05:37:29.851Z,1.74
2023-01-28T05:41:33.330Z,1.57
2023-01-28T05:45:38.819Z,1.63
2023-01-28T05:49:47.318Z,1.69
2023-01-28T05:54:13.033Z,1.77
2023-01-28T05:58:15.863Z,1.82
2023-01-28T06:02:18.720Z,1.84
2023-01-28T06:06:24.207Z,1.86
2023-01-28T06:10:27.245Z,1.79
2023-01-28T06:14:31.085Z,1.73
2023-01-28T06:18:52.519Z,1.69
2023-01-28T06:22:56.807Z,1.69
2023-01-28T06:26:59.938Z,1.69
2023-01-28T06:31:02.851Z,1.61
2023-01-28T06:35:06.556Z,1.64
2023-01-28T06:39:10.941Z,1.50
2023-01-28T06:43:13.762Z,1.49
2023-01-28T06:47:16.513Z,1.41
2023-01-28T06:51:19.294Z,1.38
2023-01-28T06:55:23.406Z,1.47
2023-01-28T06:59:26.921Z,1.53
2023-01-28T07:03:29.715Z,1.50
2023-01-28T07:07:32.495Z,1.53
2023-01-28T07:11:36.678Z,1.62
2023-01-28T07:15:39.516Z,1.70
2023-01-28T07:19:42.313Z,1.67
2023-01-28T07:23:45.039Z,1.55
2023-01-28T07:27:54.072Z,1.48
2023-01-28T07:31:56.894Z,1.47
2023-01-28T07:35:59.723Z,1.48
2023-01-28T07:40:02.606Z,1.60
2023-01-28T07:44:06.949Z,1.70
2023-01-28T07:48:13.497Z,1.75
2023-01-28T07:52:16.248Z,1.81
2023-01-28T07:56:19.031Z,1.81
2023-01-28T08:00:24.409Z,1.83
2023-01-28T08:04:27.333Z,1.86
2023-01-28T08:08:30.195Z,1.85
2023-01-28T08:12:32.958Z,1.89
2023-01-28T08:16:37.095Z,1.92
2023-01-28T08:20:41.259Z,1.91
2023-01-28T08:24:44.041Z,1.91
2023-01-28T08:28:46.843Z,1.88
2023-01-28T08:32:51.003Z,1.90
2023-01-28T08:36:53.995Z,1.88
2023-01-28T08:40:58.921Z,1.88
2023-01-28T08:45:01.668Z,1.90
2023-01-28T08:49:05.906Z,1.97
2023-01-28T08:53:12.144Z,2.02
2023-01-28T08:57:15.089Z,2.05
2023-01-28T09:01:18.178Z,2.08
2023-01-28T09:05:23.045Z,2.09
2023-01-28T09:09:25.807Z,2.14
2023-01-28T09:13:30.020Z,2.16
2023-01-28T09:17:32.826Z,2.15
2023-01-28T09:21:39.470Z,2.15
2023-01-28T09:25:42.741Z,2.15
2023-01-28T09:29:45.533Z,2.17
2023-01-28T09:33:54.763Z,2.17
2023-01-28T09:38:00.098Z,2.22
2023-01-28T09:42:24.105Z,2.18
2023-01-28T09:46:32.819Z,2.15
2023-01-28T09:50:38.515Z,2.22
2023-01-28T09:54:46.150Z,2.21
2023-01-28T09:58:48.927Z,2.27
2023-01-28T10:03:25.730Z,2.28
2023-01-28T10:07:37.511Z,2.26
2023-01-28T10:11:55.713Z,2.36
2023-01-28T10:16:10.802Z,2.52
2023-01-28T10:20:22.766Z,2.60
2023-01-28T10:24:32.841Z,2.70
2023-01-28T10:28:37.576Z,2.80
2023-01-28T10:32:47.746Z,2.93
2023-01-28T10:36:52.433Z,2.95
2023-01-28T10:40:59.769Z,3.05
2023-01-28T10:45:09.925Z,3.04
2023-01-28T10:49:16.326Z,2.94
2023-01-28T10:53:19.346Z,2.96
2023-01-28T10:57:22.801Z,2.98
2023-01-28T11:01:38.732Z,2.96
2023-01-28T11:05:52.557Z,2.93
2023-01-28T11:09:55.344Z,2.92
2023-01-28T11:13:58.618Z,3.00
2023-01-28T11:18:06.204Z,3.15
2023-01-28T11:22:25.926Z,3.29
2023-01-28T11:26:32.206Z,3.38
2023-01-28T11:30:40.191Z,3.47
2023-01-28T11:34:51.239Z,3.42
2023-01-28T11:38:55.809Z,3.48
2023-01-28T11:42:59.742Z,3.45
2023-01-28T11:47:15.293Z,3.38
2023-01-28T11:51:30.628Z,3.36
2023-01-28T11:55:44.534Z,3.31
2023-01-28T12:00:00.673Z,3.29
2023-01-28T12:04:19.761Z,3.32
2023-01-28T12:08:27.304Z,3.36
2023-01-28T12:12:50.295Z,3.38
2023-01-28T12:17:03.217Z,3.26
2023-01-28T12:21:08.295Z,3.15
2023-01-28T12:25:25.976Z,3.24
2023-01-28T12:29:36.856Z,3.39
2023-01-28T12:34:00.495Z,3.36
2023-01-28T12:38:15.561Z,3.46
2023-01-28T12:42:28.537Z,3.65
2023-01-28T12:46:39.726Z,3.72
2023-01-28T12:50:46.631Z,3.79
2023-01-28T12:54:57.398Z,3.89
2023-01-28T12:59:06.724Z,3.99
2023-01-28T13:03:16.199Z,4.04
2023-01-28T13:07:26.362Z,4.00
2023-01-28T13:11:36.218Z,4.00
2023-01-28T13:15:43.291Z,4.09
2023-01-28T13:19:46.387Z,3.99
2023-01-28T13:23:50.815Z,3.96
2023-01-28T13:27:58.833Z,3.92
2023-01-28T13:32:24.857Z,3.84
2023-01-28T13:36:30.558Z,3.75
2023-01-28T13:40:34.157Z,3.73
2023-01-28T13:44:39.097Z,3.82
2023-01-28T13:48:49.132Z,3.75
2023-01-28T13:52:57.849Z,3.65
2023-01-28T13:57:22.735Z,3.59
2023-01-28T14:01:50.117Z,3.56
2023-01-28T14:06:21.809Z,3.56
2023-01-28T14:10:35.805Z,3.61
2023-01-28T14:14:54.988Z,3.64
2023-01-28T14:19:00.522Z,3.69
2023-01-28T14:23:07.080Z,3.75
2023-01-28T14:27:16.778Z,3.81
2023-01-28T14:31:28.209Z,3.88
2023-01-28T14:35:33.683Z,3.92
2023-01-28T14:39:44.717Z,3.96
2023-01-28T14:43:47.518Z,3.95
2023-01-28T14:48:09.674Z,3.92
2023-01-28T14:52:30.508Z,3.89
2023-01-28T14:56:47.648Z,3.87
2023-01-28T15:00:55.527Z,3.83
2023-01-28T15:05:09.596Z,3.81
2023-01-28T15:09:14.788Z,3.78
2023-01-28T15:13:26.321Z,3.75
2023-01-28T15:17:29.421Z,3.67
2023-01-28T15:21:33.362Z,3.65
2023-01-28T15:25:36.303Z,3.59
2023-01-28T15:29:40.445Z,3.58
2023-01-28T15:33:43.149Z,3.58
2023-01-28T15:37:45.892Z,3.61
2023-01-28T15:41:51.927Z,3.60
2023-01-28T15:45:58.228Z,3.55
2023-01-28T15:50:03.570Z,3.52
2023-01-28T15:54:10.673Z,3.52
2023-01-28T15:58:21.839Z,3.45
2023-01-28T16:02:29.129Z,3.41
2023-01-28T16:06:35.739Z,3.42
2023-01-28T16:10:39.080Z,3.43
2023-01-28T16:14:46.374Z,3.38
2023-01-28T16:18:55.906Z,3.28
2023-01-28T16:23:01.915Z,3.24
2023-01-28T16:27:07.907Z,3.21
2023-01-28T16:31:12.733Z,3.08
2023-01-28T16:35:19.993Z,3.03
2023-01-28T16:39:22.960Z,2.95
2023-01-28T16:43:26.035Z,2.85
2023-01-28T16:47:28.953Z,2.74
2023-01-28T16:51:33.384Z,2.64
2023-01-28T16:55:36.247Z,2.57
2023-01-28T16:59:39.041Z,2.47
2023-01-28T17:03:43.209Z,2.40
2023-01-28T17:07:49.382Z,2.30
2023-01-28T17:11:52.181Z,2.22
2023-01-28T17:15:56.159Z,2.15
2023-01-28T17:19:59.111Z,2.13
2023-01-28T17:24:03.812Z,2.10
2023-01-28T17:28:07.328Z,2.02
2023-01-28T17:32:19.003Z,2.01
2023-01-28T17:36:21.873Z,1.99
2023-01-28T17:40:26.303Z,1.97
2023-01-28T17:44:29.478Z,1.95
2023-01-28T17:48:32.412Z,1.96
2023-01-28T17:52:35.680Z,1.94
2023-01-28T17:56:40.349Z,1.88
2023-01-28T18:00:43.310Z,1.90
2023-01-28T18:04:46.230Z,1.87
2023-01-28T18:08:49.206Z,1.87
2023-01-28T18:12:53.613Z,1.88
2023-01-28T18:16:56.447Z,1.92
2023-01-28T18:20:59.650Z,1.91
2023-01-28T18:25:03.087Z,1.92
2023-01-28T18:29:07.955Z,1.88
2023-01-28T18:33:11.818Z,1.84
2023-01-28T18:37:14.740Z,1.89
2023-01-28T18:41:17.805Z,1.90
2023-01-28T18:45:22.505Z,1.93
2023-01-28T18:49:25.893Z,1.94
2023-01-28T18:53:31.734Z,1.97
2023-01-28T18:57:34.965Z,2.00
2023-01-28T19:01:40.230Z,2.02
2023-01-28T19:05:43.138Z,1.99
2023-01-28T19:09:46.277Z,1.99
2023-01-28T19:13:49.173Z,2.02
2023-01-28T19:17:54.404Z,2.00
2023-01-28T19:21:57.255Z,1.98
2023-01-28T19:26:03.584Z,1.96
2023-01-28T19:30:08.416Z,1.93
2023-01-28T19:34:13.049Z,1.94
2023-01-28T19:38:15.964Z,1.95
2023-01-28T19:42:19.060Z,1.97
2023-01-28T19:46:22.058Z,1.97
2023-01-28T19:50:26.425Z,1.96
2023-01-28T19:54:29.759Z,1.97
2023-01-28T19:58:35.177Z,1.93
2023-01-28T20:02:39.290Z,1.85
2023-01-28T20:06:43.569Z,1.79
2023-01-28T20:10:46.442Z,1.79
2023-01-28T20:14:49.431Z,1.84
2023-01-28T20:18:53.995Z,1.87
2023-01-28T20:22:58.317Z,1.89
2023-01-28T20:27:02.537Z,1.91
2023-01-28T20:31:07.555Z,1.97
2023-01-28T20:35:10.895Z,2.00
2023-01-28T20:39:15.557Z,1.95
2023-01-28T20:43:18.392Z,1.92
2023-01-28T20:47:21.328Z,1.90
2023-01-28T20:51:27.474Z,1.91
2023-01-28T20:55:32.727Z,1.92
2023-01-28T20:59:35.497Z,1.95
2023-01-28T21:03:38.581Z,1.96
2023-01-28T21:07:41.893Z,1.99
2023-01-28T21:11:46.198Z,1.98
2023-01-28T21:15:53.991Z,1.95
2023-01-28T21:19:57.034Z,1.96
2023-01-28T21:24:01.400Z,2.02
2023-01-28T21:28:06.059Z,2.03
2023-01-28T21:32:09.135Z,1.99
2023-01-28T21:36:14.937Z,2.00
2023-01-28T21:40:18.463Z,1.99
2023-01-28T21:44:23.133Z,2.08
2023-01-28T21:48:26.720Z,2.09
2023-01-28T21:52:29.902Z,2.11
2023-01-28T21:56:33.071Z,2.09
2023-01-28T22:00:38.490Z,2.08
2023-01-28T22:04:46.214Z,2.03
2023-01-28T22:08:49.217Z,1.99
2023-01-28T22:12:53.729Z,1.99
2023-01-28T22:16:58.283Z,2.08
2023-01-28T22:21:02.861Z,2.03
2023-01-28T22:25:06.784Z,2.03
2023-01-28T22:29:09.807Z,2.01
2023-01-28T22:33:14.584Z,1.99
2023-01-28T22:37:17.595Z,1.98
2023-01-28T22:41:23.396Z,1.99
2023-01-28T22:45:26.403Z,2.01
2023-01-28T22:49:30.715Z,1.99
2023-01-28T22:53:34.219Z,2.00
2023-01-28T22:57:37.256Z,2.01
2023-01-28T23:01:40.294Z,2.01
2023-01-28T23:05:44.844Z,2.00
2023-01-28T23:09:48.281Z,2.06
2023-01-28T23:14:09.439Z,2.08
2023-01-28T23:18:43.191Z,2.03
2023-01-28T23:23:05.183Z,2.03
2023-01-28T23:27:08.321Z,2.05
2023-01-28T23:31:11.252Z,2.04
2023-01-28T23:35:15.026Z,2.02
2023-01-28T23:39:19.645Z,1.97
2023-01-28T23:43:23.228Z,1.96
2023-01-28T23:47:26.230Z,1.93
2023-01-28T23:51:29.191Z,1.93
2023-01-28T23:55:33.579Z,1.92
2023-01-28T23:59:36.610Z,1.96
